createdAt,value
2019-06-01T00:01:44.656Z,99.90
2019-06-01T00:04:21.028Z,99.90
2019-06-01T00:06:58.645Z,99.90
2019-06-01T00:09:36.185Z,99.90
2019-06-01T00:12:13.838Z,99.90
2019-06-01T00:14:51.457Z,99.90
2019-06-01T00:17:29.063Z,99.90
2019-06-01T00:20:06.684Z,99.90
2019-06-01T00:22:45.371Z,99.90
2019-06-01T00:25:21.771Z,99.90
2019-06-01T00:27:59.469Z,99.90
2019-06-01T00:30:36.983Z,99.90
2019-06-01T00:33:14.559Z,99.90
2019-06-01T00:35:52.133Z,99.90
2019-06-01T00:38:29.725Z,99.90
2019-06-01T00:41:07.346Z,99.90
2019-06-01T00:43:46.084Z,99.90
2019-06-01T00:46:22.508Z,99.90
2019-06-01T00:49:00.267Z,99.90
2019-06-01T00:51:37.867Z,99.90
2019-06-01T00:54:15.581Z,99.90
2019-06-01T00:56:53.871Z,99.90
2019-06-01T00:59:30.824Z,99.90
2019-06-01T01:02:08.385Z,99.90
2019-06-01T01:04:46.461Z,99.90
2019-06-01T01:07:23.618Z,99.90
2019-06-01T01:10:01.221Z,99.90
2019-06-01T01:12:57.395Z,99.90
2019-06-01T01:15:34.972Z,99.90
2019-06-01T01:18:12.592Z,99.90
2019-06-01T01:20:50.191Z,99.90
2019-06-01T01:23:27.689Z,99.90
2019-06-01T01:26:05.674Z,99.90
2019-06-01T01:28:43.304Z,99.90
2019-06-01T01:31:20.926Z,99.90
2019-06-01T01:33:58.487Z,99.90
2019-06-01T01:36:36.097Z,99.90
2019-06-01T01:39:13.667Z,99.90
2019-06-01T01:41:52.160Z,99.90
2019-06-01T01:44:28.775Z,99.90
2019-06-01T01:47:06.315Z,99.90
2019-06-01T01:49:43.902Z,99.90
2019-06-01T01:52:21.421Z,99.90
2019-06-01T01:54:59.010Z,99.90
2019-06-01T01:57:36.873Z,99.90
2019-06-01T02:00:14.414Z,99.90
2019-06-01T02:02:52.063Z,99.90
2019-06-01T02:05:29.728Z,99.90
2019-06-01T02:08:07.550Z,99.90
2019-06-01T02:10:45.111Z,99.90
2019-06-01T02:13:22.655Z,99.90
2019-06-01T02:16:00.631Z,99.90
2019-06-01T02:18:37.783Z,99.90
2019-06-01T02:21:15.434Z,99.90
2019-06-01T02:23:53.013Z,99.90
2019-06-01T02:26:30.757Z,99.90
2019-06-01T02:29:08.282Z,99.90
2019-06-01T02:31:45.842Z,99.90
2019-06-01T02:34:23.388Z,99.90
2019-06-01T02:37:02.393Z,99.90
2019-06-01T02:39:38.880Z,99.90
2019-06-01T02:42:16.454Z,99.90
2019-06-01T02:44:55.103Z,99.90
2019-06-01T02:47:31.576Z,99.90
2019-06-01T02:50:09.413Z,99.90
2019-06-01T02:52:47.111Z,99.90
2019-06-01T02:55:24.712Z,99.90
2019-06-01T02:58:02.463Z,99.90
2019-06-01T03:01:55.953Z,99.90
2019-06-01T03:04:17.989Z,99.90
2019-06-01T03:06:55.646Z,99.90
2019-06-01T03:09:33.194Z,99.90
2019-06-01T03:12:11.281Z,99.90
2019-06-01T03:14:48.925Z,99.90
2019-06-01T03:17:28.093Z,99.90
2019-06-01T03:20:06.406Z,99.90
2019-06-01T03:22:44.308Z,99.90
2019-06-01T03:25:21.813Z,99.90
2019-06-01T03:28:00.016Z,99.90
2019-06-01T03:30:45.841Z,99.90
2019-06-01T03:33:22.161Z,99.90
2019-06-01T03:36:00.721Z,99.90
2019-06-01T03:38:37.281Z,99.90
2019-06-01T03:41:14.842Z,99.90
2019-06-01T03:43:52.372Z,99.90
2019-06-01T03:46:29.997Z,99.90
2019-06-01T03:49:07.740Z,99.90
2019-06-01T03:51:45.132Z,99.90
2019-06-01T03:54:22.768Z,99.90
2019-06-01T03:57:00.912Z,99.90
2019-06-01T03:59:38.022Z,99.90
2019-06-01T04:02:15.614Z,99.90
2019-06-01T04:04:53.282Z,99.90
2019-06-01T04:07:30.916Z,99.90
2019-06-01T04:10:10.030Z,99.90
2019-06-01T04:12:46.240Z,99.90
2019-06-01T04:15:23.924Z,99.90
2019-06-01T04:18:01.963Z,99.90
2019-06-01T04:20:39.224Z,99.90
2019-06-01T04:23:16.855Z,99.90
2019-06-01T04:25:54.451Z,99.90
2019-06-01T04:28:32.174Z,99.90
2019-06-01T04:31:10.850Z,99.90
2019-06-01T04:33:47.335Z,99.90
2019-06-01T04:36:24.997Z,99.90
2019-06-01T04:39:03.361Z,99.90
2019-06-01T04:41:40.180Z,99.90
2019-06-01T04:44:18.399Z,99.90
2019-06-01T04:46:55.297Z,99.90
2019-06-01T04:49:32.860Z,99.90
2019-06-01T04:52:11.911Z,99.90
2019-06-01T04:54:48.073Z,99.90
2019-06-01T04:57:25.683Z,99.90
2019-06-01T05:00:07.916Z,99.90
2019-06-01T05:02:41.066Z,99.90
2019-06-01T05:05:18.659Z,99.90
2019-06-01T05:07:56.178Z,99.90
2019-06-01T05:10:33.759Z,99.90
2019-06-01T05:13:11.510Z,99.90
2019-06-01T05:15:48.795Z,99.90
2019-06-01T05:18:26.370Z,99.90
2019-06-01T05:21:04.142Z,99.90
2019-06-01T05:23:41.780Z,99.90
2019-06-01T05:26:19.327Z,99.90
2019-06-01T05:28:57.115Z,99.90
2019-06-01T05:31:34.635Z,99.90
2019-06-01T05:34:12.179Z,99.90
2019-06-01T05:36:49.683Z,99.90
2019-06-01T05:39:27.242Z,99.90
2019-06-01T05:42:04.797Z,99.90
2019-06-01T05:44:42.334Z,99.90
2019-06-01T05:47:19.901Z,99.90
2019-06-01T05:49:57.479Z,99.90
2019-06-01T05:52:35.001Z,99.90
2019-06-01T05:55:12.919Z,99.90
2019-06-01T05:57:50.188Z,99.90
2019-06-01T06:00:50.986Z,99.90
2019-06-01T06:03:39.881Z,99.90
2019-06-01T06:06:06.091Z,99.90
2019-06-01T06:08:43.677Z,99.90
2019-06-01T06:11:21.258Z,99.90
2019-06-01T06:13:58.917Z,99.90
2019-06-01T06:16:36.480Z,99.90
2019-06-01T06:19:17.445Z,99.90
2019-06-01T06:21:51.608Z,99.90
2019-06-01T06:24:29.227Z,98.90
2019-06-01T06:27:06.886Z,96.90
2019-06-01T06:29:44.440Z,96.00
2019-06-01T06:32:23.329Z,94.80
2019-06-01T06:34:59.781Z,93.30
2019-06-01T06:37:37.350Z,92.50
2019-06-01T06:40:15.924Z,91.90
2019-06-01T06:42:52.447Z,91.20
2019-06-01T06:45:30.054Z,90.80
2019-06-01T06:48:07.602Z,88.70
2019-06-01T06:50:45.364Z,88.40
2019-06-01T06:53:32.773Z,86.90
2019-06-01T06:56:00.473Z,85.70
2019-06-01T06:58:37.998Z,83.50
2019-06-01T07:01:16.746Z,82.40
2019-06-01T07:03:53.308Z,81.70
2019-06-01T07:06:30.896Z,81.40
2019-06-01T07:09:09.158Z,80.30
2019-06-01T07:11:46.761Z,79.60
2019-06-01T07:14:25.473Z,77.10
2019-06-01T07:17:02.083Z,76.90
2019-06-01T07:19:39.602Z,76.10
2019-06-01T07:22:17.428Z,75.30
2019-06-01T07:24:55.001Z,74.40
2019-06-01T07:27:32.697Z,73.70
2019-06-01T07:30:10.473Z,73.00
2019-06-01T07:32:48.122Z,73.20
2019-06-01T07:35:26.379Z,73.20
2019-06-01T07:38:06.377Z,73.00
2019-06-01T07:40:43.917Z,72.60
2019-06-01T07:43:22.596Z,72.60
2019-06-01T07:45:59.249Z,72.50
2019-06-01T07:48:36.596Z,72.20
2019-06-01T07:51:14.154Z,72.60
2019-06-01T07:53:52.093Z,73.70
2019-06-01T07:56:29.825Z,74.60
2019-06-01T07:59:07.343Z,75.90
2019-06-01T08:01:45.044Z,75.50
2019-06-01T08:04:23.952Z,76.40
2019-06-01T08:07:00.149Z,77.70
2019-06-01T08:09:37.744Z,78.60
2019-06-01T08:12:15.317Z,78.20
2019-06-01T08:14:53.015Z,77.80
2019-06-01T08:17:32.163Z,77.60
2019-06-01T08:20:08.616Z,77.50
2019-06-01T08:22:46.129Z,76.90
2019-06-01T08:25:24.544Z,76.50
2019-06-01T08:28:01.625Z,75.70
2019-06-01T08:30:39.471Z,75.10
2019-06-01T08:33:17.071Z,76.00
2019-06-01T08:35:54.637Z,73.90
2019-06-01T08:38:33.669Z,73.00
2019-06-01T08:41:09.929Z,72.60
2019-06-01T08:43:47.631Z,71.10
2019-06-01T08:46:25.576Z,70.20
2019-06-01T08:49:02.893Z,68.90
2019-06-01T08:51:40.685Z,69.00
2019-06-01T08:54:18.215Z,67.00
2019-06-01T08:56:55.885Z,65.00
2019-06-01T08:59:34.579Z,64.30
2019-06-01T09:02:11.320Z,63.40
2019-06-01T09:04:49.134Z,63.20
2019-06-01T09:07:26.922Z,61.50
2019-06-01T09:10:04.328Z,60.10
2019-06-01T09:12:41.902Z,60.60
2019-06-01T09:15:19.418Z,57.70
2019-06-01T09:17:57.064Z,55.70
2019-06-01T09:20:37.486Z,56.50
2019-06-01T09:23:12.208Z,57.40
2019-06-01T09:25:49.714Z,56.20
2019-06-01T09:28:27.835Z,57.30
2019-06-01T09:31:04.773Z,58.50
2019-06-01T09:33:42.447Z,57.10
2019-06-01T09:36:20.014Z,55.20
2019-06-01T09:38:57.648Z,55.10
2019-06-01T09:41:36.623Z,55.80
2019-06-01T09:44:13.503Z,52.10
2019-06-01T09:46:51.102Z,52.20
2019-06-01T09:49:29.186Z,51.10
2019-06-01T09:52:06.473Z,49.80
2019-06-01T09:54:44.026Z,51.90
2019-06-01T09:57:21.561Z,51.10
2019-06-01T09:59:59.110Z,48.30
2019-06-01T10:02:36.817Z,47.80
2019-06-01T10:05:14.432Z,48.00
2019-06-01T10:07:51.960Z,48.70
2019-06-01T10:10:29.892Z,49.10
2019-06-01T10:13:08.023Z,49.20
2019-06-01T10:15:44.624Z,49.70
2019-06-01T10:18:22.238Z,48.90
2019-06-01T10:20:59.796Z,49.80
2019-06-01T10:23:38.472Z,51.20
2019-06-01T10:26:14.890Z,51.10
2019-06-01T10:28:52.421Z,50.40
2019-06-01T10:31:30.504Z,51.00
2019-06-01T10:34:07.577Z,50.30
2019-06-01T10:36:45.125Z,50.10
2019-06-01T10:39:22.818Z,50.70
2019-06-01T10:42:00.351Z,50.50
2019-06-01T10:44:43.401Z,52.20
2019-06-01T10:47:15.473Z,51.80
2019-06-01T10:49:53.092Z,50.80
2019-06-01T10:52:31.894Z,48.90
2019-06-01T10:55:08.359Z,49.10
2019-06-01T10:57:45.975Z,48.10
2019-06-01T11:00:37.521Z,47.50
2019-06-01T11:03:01.093Z,48.50
2019-06-01T11:05:38.843Z,47.30
2019-06-01T11:08:16.162Z,47.80
2019-06-01T11:10:53.782Z,47.70
2019-06-01T11:13:32.960Z,46.90
2019-06-01T11:16:09.219Z,48.00
2019-06-01T11:18:47.053Z,47.20
2019-06-01T11:21:25.341Z,48.30
2019-06-01T11:24:02.899Z,47.00
2019-06-01T11:26:41.721Z,47.40
2019-06-01T11:29:18.085Z,48.20
2019-06-01T11:31:55.631Z,48.00
2019-06-01T11:34:33.927Z,47.70
2019-06-01T11:37:15.194Z,48.50
2019-06-01T11:39:48.859Z,47.80
2019-06-01T11:42:26.853Z,46.90
2019-06-01T11:45:04.406Z,46.10
2019-06-01T11:47:42.946Z,46.60
2019-06-01T11:50:19.489Z,48.20
2019-06-01T11:52:57.226Z,45.10
2019-06-01T11:55:35.131Z,42.00
2019-06-01T11:58:12.586Z,35.30
2019-06-01T12:00:50.204Z,31.20
2019-06-01T12:03:27.775Z,27.90
2019-06-01T12:06:05.408Z,27.30
2019-06-01T12:08:44.073Z,26.80
2019-06-01T12:11:20.897Z,26.50
2019-06-01T12:13:58.568Z,26.80
2019-06-01T12:16:36.404Z,27.80
2019-06-01T12:19:13.823Z,28.50
2019-06-01T12:21:51.604Z,29.70
2019-06-01T12:24:29.154Z,29.50
2019-06-01T12:27:07.297Z,29.60
2019-06-01T12:29:45.838Z,28.30
2019-06-01T12:32:22.778Z,27.80
2019-06-01T12:35:03.045Z,26.50
2019-06-01T12:37:57.268Z,25.60
2019-06-01T12:40:15.704Z,25.00
2019-06-01T12:42:53.210Z,24.40
2019-06-01T12:45:30.744Z,23.40
2019-06-01T12:48:08.539Z,22.80
2019-06-01T12:50:49.059Z,21.40
2019-06-01T12:53:23.732Z,20.80
2019-06-01T12:56:01.599Z,20.70
2019-06-01T12:58:39.869Z,20.80
2019-06-01T13:01:16.903Z,21.80
2019-06-01T13:03:54.720Z,23.20
2019-06-01T13:06:32.287Z,23.30
2019-06-01T13:09:11.489Z,23.10
2019-06-01T13:11:49.483Z,23.30
2019-06-01T13:14:26.670Z,23.40
2019-06-01T13:17:07.626Z,22.50
2019-06-01T13:19:43.201Z,21.20
2019-06-01T13:22:19.569Z,20.10
2019-06-01T13:24:57.275Z,19.60
2019-06-01T13:27:34.919Z,19.50
2019-06-01T13:30:12.476Z,19.30
2019-06-01T13:32:50.762Z,18.90
2019-06-01T13:35:27.622Z,18.70
2019-06-01T13:38:12.230Z,18.90
2019-06-01T13:40:42.942Z,18.60
2019-06-01T13:43:20.653Z,18.80
2019-06-01T13:45:58.333Z,18.50
2019-06-01T13:48:35.858Z,18.20
2019-06-01T13:51:13.475Z,18.40
2019-06-01T13:53:52.770Z,17.80
2019-06-01T13:56:28.707Z,18.20
2019-06-01T13:59:06.237Z,18.30
2019-06-01T14:01:45.037Z,18.80
2019-06-01T14:04:21.539Z,18.10
2019-06-01T14:06:59.169Z,18.00
2019-06-01T14:09:36.769Z,18.10
2019-06-01T14:12:14.285Z,18.10
2019-06-01T14:14:51.887Z,18.60
2019-06-01T14:17:29.448Z,18.10
2019-06-01T14:20:07.329Z,17.80
2019-06-01T14:22:45.765Z,17.90
2019-06-01T14:25:22.640Z,18.10
2019-06-01T14:28:00.225Z,18.60
2019-06-01T14:30:37.845Z,19.30
2019-06-01T14:33:15.438Z,20.20
2019-06-01T14:35:53.073Z,21.30
2019-06-01T14:38:45.928Z,21.30
2019-06-01T14:41:08.211Z,21.40
2019-06-01T14:43:46.868Z,21.50
2019-06-01T14:46:23.430Z,22.30
2019-06-01T14:49:01.258Z,22.00
2019-06-01T14:51:38.968Z,21.70
2019-06-01T14:54:16.555Z,21.40
2019-06-01T14:56:54.071Z,21.50
2019-06-01T14:59:31.639Z,21.70
2019-06-01T15:02:09.572Z,22.10
2019-06-01T15:04:48.204Z,21.90
2019-06-01T15:07:24.704Z,21.90
2019-06-01T15:10:02.288Z,21.80
2019-06-01T15:12:39.897Z,21.80
2019-06-01T15:15:17.458Z,21.70
2019-06-01T15:17:55.533Z,20.70
2019-06-01T15:20:32.651Z,21.00
2019-06-01T15:23:10.282Z,20.90
2019-06-01T15:25:47.825Z,20.50
2019-06-01T15:28:25.532Z,19.90
2019-06-01T15:31:03.378Z,18.90
2019-06-01T15:33:40.696Z,19.00
2019-06-01T15:36:18.383Z,19.50
2019-06-01T15:38:56.118Z,20.20
2019-06-01T15:41:33.783Z,20.80
2019-06-01T15:44:11.586Z,20.90
2019-06-01T15:46:49.204Z,20.70
2019-06-01T15:49:26.780Z,20.90
2019-06-01T15:52:04.438Z,20.90
2019-06-01T15:54:42.051Z,20.70
2019-06-01T15:57:19.741Z,20.30
2019-06-01T15:59:58.539Z,19.80
2019-06-01T16:02:35.180Z,20.10
2019-06-01T16:05:12.709Z,20.90
2019-06-01T16:07:50.488Z,20.80
2019-06-01T16:10:28.035Z,20.50
2019-06-01T16:13:05.688Z,20.40
2019-06-01T16:15:43.245Z,20.30
2019-06-01T16:18:20.845Z,20.40
2019-06-01T16:20:58.395Z,20.20
2019-06-01T16:23:49.514Z,20.20
2019-06-01T16:26:16.383Z,20.50
2019-06-01T16:28:51.143Z,20.90
2019-06-01T16:31:28.902Z,20.70
2019-06-01T16:34:06.470Z,20.80
2019-06-01T16:36:44.070Z,20.70
2019-06-01T16:39:21.703Z,20.10
2019-06-01T16:41:59.796Z,19.40
2019-06-01T16:44:36.905Z,19.30
2019-06-01T16:47:14.646Z,19.70
2019-06-01T16:49:52.336Z,19.90
2019-06-01T16:52:29.906Z,20.40
2019-06-01T16:55:07.734Z,20.40
2019-06-01T16:57:45.289Z,20.20
2019-06-01T17:00:22.853Z,20.20
2019-06-01T17:03:00.673Z,20.60
2019-06-01T17:05:38.247Z,20.80
2019-06-01T17:08:15.822Z,20.80
2019-06-01T17:10:53.410Z,20.90
2019-06-01T17:13:30.941Z,20.80
2019-06-01T17:16:08.616Z,21.10
2019-06-01T17:18:46.238Z,21.20
2019-06-01T17:21:23.823Z,21.50
2019-06-01T17:24:01.644Z,21.70
2019-06-01T17:26:39.261Z,22.00
2019-06-01T17:29:16.897Z,21.80
2019-06-01T17:32:04.165Z,21.60
2019-06-01T17:34:32.357Z,21.70
2019-06-01T17:37:10.029Z,22.10
2019-06-01T17:39:47.660Z,22.40
2019-06-01T17:42:25.373Z,22.30
2019-06-01T17:45:04.313Z,22.80
2019-06-01T17:47:41.017Z,23.40
2019-06-01T17:50:18.368Z,24.00
2019-06-01T17:52:55.943Z,24.40
2019-06-01T17:55:35.330Z,24.80
2019-06-01T17:58:13.164Z,25.60
2019-06-01T18:00:50.634Z,26.10
2019-06-01T18:03:28.312Z,26.70
2019-06-01T18:06:06.087Z,27.60
2019-06-01T18:08:43.669Z,28.00
2019-06-01T18:11:21.560Z,28.30
2019-06-01T18:13:59.151Z,28.70
2019-06-01T18:16:36.918Z,29.10
2019-06-01T18:19:14.521Z,29.70
2019-06-01T18:21:52.244Z,31.10
2019-06-01T18:24:29.762Z,31.00
2019-06-01T18:27:08.503Z,31.80
2019-06-01T18:29:48.669Z,32.70
2019-06-01T18:32:22.882Z,33.70
2019-06-01T18:35:00.412Z,34.60
2019-06-01T18:37:38.147Z,35.00
2019-06-01T18:40:16.183Z,35.80
2019-06-01T18:42:54.250Z,36.80
2019-06-01T18:45:31.784Z,37.30
2019-06-01T18:48:10.237Z,37.20
2019-06-01T18:50:47.646Z,37.00
2019-06-01T18:53:25.408Z,36.90
2019-06-01T18:56:04.140Z,36.90
2019-06-01T18:58:40.690Z,37.40
2019-06-01T19:01:21.034Z,38.40
2019-06-01T19:03:55.989Z,39.70
2019-06-01T19:06:33.603Z,40.70
2019-06-01T19:09:11.959Z,41.60
2019-06-01T19:11:49.738Z,42.50
2019-06-01T19:14:27.419Z,43.80
2019-06-01T19:17:06.189Z,45.40
2019-06-01T19:19:42.647Z,46.70
2019-06-01T19:22:20.222Z,47.90
2019-06-01T19:24:57.749Z,48.90
2019-06-01T19:27:35.423Z,49.70
2019-06-01T19:30:15.056Z,50.80
2019-06-01T19:32:52.101Z,51.50
2019-06-01T19:35:29.775Z,53.30
2019-06-01T19:38:07.373Z,54.80
2019-06-01T19:40:45.165Z,55.20
2019-06-01T19:43:22.860Z,56.60
2019-06-01T19:46:00.376Z,56.70
2019-06-01T19:48:38.036Z,57.40
2019-06-01T19:51:16.743Z,58.30
2019-06-01T19:53:53.374Z,59.10
2019-06-01T19:56:31.310Z,59.50
2019-06-01T19:59:09.881Z,60.30
2019-06-01T20:01:46.969Z,61.40
2019-06-01T20:04:24.842Z,62.80
2019-06-01T20:07:02.471Z,63.50
2019-06-01T20:09:40.241Z,63.80
2019-06-01T20:12:19.931Z,64.40
2019-06-01T20:14:55.377Z,65.20
2019-06-01T20:17:32.994Z,66.30
2019-06-01T20:20:10.780Z,66.90
2019-06-01T20:22:48.310Z,67.40
2019-06-01T20:25:25.871Z,67.70
2019-06-01T20:28:03.458Z,68.10
2019-06-01T20:30:41.139Z,68.60
2019-06-01T20:33:20.294Z,69.00
2019-06-01T20:35:56.369Z,69.70
2019-06-01T20:38:35.378Z,70.90
2019-06-01T20:41:14.714Z,71.80
2019-06-01T20:43:50.670Z,72.40
2019-06-01T20:46:28.305Z,72.90
2019-06-01T20:49:05.933Z,73.40
2019-06-01T20:51:43.543Z,73.90
2019-06-01T20:54:21.196Z,74.40
2019-06-01T20:56:58.702Z,75.30
2019-06-01T20:59:36.366Z,76.00
2019-06-01T21:02:14.004Z,76.20
2019-06-01T21:04:51.593Z,76.90
2019-06-01T21:07:29.128Z,77.20
2019-06-01T21:10:07.040Z,77.40
2019-06-01T21:12:45.852Z,78.50
2019-06-01T21:15:23.378Z,78.10
2019-06-01T21:18:00.142Z,79.70
2019-06-01T21:20:37.658Z,80.30
2019-06-01T21:23:15.196Z,81.00
2019-06-01T21:25:52.739Z,81.90
2019-06-01T21:28:30.406Z,83.40
2019-06-01T21:31:08.093Z,84.60
2019-06-01T21:33:45.620Z,85.80
2019-06-01T21:36:23.590Z,86.80
2019-06-01T21:39:03.927Z,87.70
2019-06-01T21:41:41.645Z,88.30
2019-06-01T21:44:19.494Z,89.10
2019-06-01T21:46:56.919Z,90.20
2019-06-01T21:49:34.746Z,90.40
2019-06-01T21:52:12.257Z,90.70
2019-06-01T21:54:49.888Z,91.10
2019-06-01T21:57:27.602Z,91.40
2019-06-01T22:00:05.250Z,91.60
2019-06-01T22:02:42.854Z,91.30
2019-06-01T22:05:20.855Z,91.20
2019-06-01T22:07:58.063Z,91.40
2019-06-01T22:10:35.693Z,91.80
2019-06-01T22:13:18.474Z,92.20
2019-06-01T22:15:55.528Z,92.60
2019-06-01T22:18:33.168Z,93.00
2019-06-01T22:21:10.910Z,93.30
2019-06-01T22:23:48.535Z,93.60
2019-06-01T22:26:26.416Z,93.90
2019-06-01T22:29:04.083Z,93.90
2019-06-01T22:31:41.716Z,93.50
2019-06-01T22:34:20.581Z,93.90
2019-06-01T22:36:56.770Z,93.70
2019-06-01T22:39:34.343Z,93.60
2019-06-01T22:42:11.969Z,93.80
2019-06-01T22:44:49.799Z,94.20
2019-06-01T22:47:29.037Z,94.80
2019-06-01T22:50:05.309Z,95.70
2019-06-01T22:52:43.182Z,96.10
2019-06-01T22:55:21.840Z,96.20
2019-06-01T22:58:01.961Z,96.80
2019-06-01T23:00:36.391Z,97.20
2019-06-01T23:03:13.926Z,97.10
2019-06-01T23:05:51.436Z,97.30
2019-06-01T23:08:29.470Z,97.60
2019-06-01T23:11:06.652Z,98.30
2019-06-01T23:13:53.290Z,98.90
2019-06-01T23:20:34.719Z,98.90
2019-06-01T23:23:12.276Z,98.90
2019-06-01T23:25:49.857Z,98.90
2019-06-01T23:28:28.591Z,98.90
2019-06-01T23:31:05.511Z,99.00
2019-06-01T23:33:43.409Z,99.80
2019-06-01T23:36:22.391Z,99.90
2019-06-01T23:38:58.781Z,99.90
2019-06-01T23:41:36.671Z,99.90
2019-06-01T23:44:14.317Z,99.90
2019-06-01T23:46:52.279Z,99.90
2019-06-01T23:49:29.819Z,99.90
2019-06-01T23:52:10.687Z,99.90
2019-06-01T23:54:48.371Z,99.90
2019-06-01T23:57:25.915Z,99.90
